DA12 weather

El Abiodh Sidi Cheikh Airport
El Bayadh Province, Algeria

Public forecast

Using degrees Celsius for public forecast. Weather courtesy of forecast.io.

METAR (pilot weather report)

Closest report is Mecheria Airport, 54.3 nm (100.6 km) NW. Retrieved 2019/07/22 17:00 UTC (21 minutes ago):

DAAY 221700Z 16020KT 6000 FEW026CB SCT033 32/14 Q1025

TAF (pilot weather forecast)

Forecast is more than 12 hours old.

Closest forecast is Mecheria Airport, 54.3 nm (100.6 km) NW. Retrieved 2019/05/21 00:09 UTC (2 months ago):

TAF TAF DAAY 202300Z 2100/2124 01014KT 9999 FEW030 BECMG 2102/2104 VRB02KT